PWSweather.com
Personal Weather Stations
Station Observations
KOMOKA
Komoka Village, Komoka, ON N0L IRO

Komoka VillageKomoka, ON N0L IRO

Lat: 42.9542444, Lon: -81.4348861

Elevation: 805

Station Type: Davis Vantage Pro 2

Latest ConditionsUpdated 7:23:14 PM EST Thursday, Jan 29, 2015
Currently Today's Max Today's Min Today's Average
Temperature 29.5°F-1.4°C 32.9°F0.5°C 1.8°F-16.8°C 26.3°F-3.2°C
Dew Point 25.5°F-3.6°C 29.7°F-1.3°C -1.1°F-18.4°C 19.8°F-6.8°C
Winds 4.0 mph NW6.4 kmh NW 5.3 mph S8.5 kmh S - 1.9 mph 3.1 kmh
Wind Gusts 19.0 mph30.6 kmh 19.0 mph30.6 kmh - -
Humidity 85% 89% 57% 77%
Pressure 29.87 in1011.5 mb 30.41 in1029.8 mb 29.72 in1006.4 mb -
Hour Temp Dew Point Humidity Winds Wind Gusts Pressure Precip Precip Rate Daily Precip Total
07:23 PM 29.5°F-1.4°C 25.5°F-3.6°C 85% 4.0 mph NW6.4 kmh NW 19.0 mph30.6 kmh 29.87 in1011.5 mb 0.00 in0.0 mm 0.00 in/hr0.0 mm/hr 0.00 in0.0 mm
07:16 PM 29.3°F-1.5°C 25.7°F-3.5°C 86% 4.0 mph NW6.4 kmh NW 13.0 mph20.9 kmh 29.86 in1011.2 mb 0.00 in0.0 mm 0.00 in/hr0.0 mm/hr 0.00 in0.0 mm
07:09 PM 29.3°F-1.5°C 25.7°F-3.5°C 86% 3.0 mph NW4.8 kmh NW 13.0 mph20.9 kmh 29.86 in1011.2 mb 0.00 in0.0 mm 0.00 in/hr0.0 mm/hr 0.00 in0.0 mm
07:02 PM 29.1°F-1.6°C 25.5°F-3.6°C 86% 3.0 mph NW4.8 kmh NW 13.0 mph20.9 kmh 29.85 in1010.8 mb 0.00 in0.0 mm 0.00 in/hr0.0 mm/hr 0.00 in0.0 mm
06:55 PM 29.1°F-1.6°C 25.5°F-3.6°C 86% 3.0 mph NW4.8 kmh NW 8.0 mph12.9 kmh 29.84 in1010.5 mb 0.00 in0.0 mm 0.00 in/hr0.0 mm/hr 0.00 in0.0 mm
06:48 PM 29.1°F-1.6°C 25.5°F-3.6°C 86% 3.0 mph NW4.8 kmh NW 12.0 mph19.3 kmh 29.84 in1010.5 mb 0.00 in0.0 mm 0.00 in/hr0.0 mm/hr 0.00 in0.0 mm
06:41 PM 29.1°F-1.6°C 25.5°F-3.6°C 86% 1.0 mph NW1.6 kmh NW 7.0 mph11.3 kmh 29.84 in1010.5 mb 0.00 in0.0 mm 0.00 in/hr0.0 mm/hr 0.00 in0.0 mm
06:34 PM 29.1°F-1.6°C 25.5°F-3.6°C 86% 1.0 mph NW1.6 kmh NW 7.0 mph11.3 kmh 29.83 in1010.2 mb 0.00 in0.0 mm 0.00 in/hr0.0 mm/hr 0.00 in0.0 mm
06:27 PM 29.1°F-1.6°C 25.5°F-3.6°C 86% 3.0 mph NW4.8 kmh NW 8.0 mph12.9 kmh 29.83 in1010.2 mb 0.00 in0.0 mm 0.00 in/hr0.0 mm/hr 0.00 in0.0 mm
06:20 PM 29.1°F-1.6°C 25.5°F-3.6°C 86% 1.0 mph NW1.6 kmh NW 8.0 mph12.9 kmh 29.82 in1009.8 mb 0.00 in0.0 mm 0.00 in/hr0.0 mm/hr 0.00 in0.0 mm
06:13 PM 29.1°F-1.6°C 25.5°F-3.6°C 86% 3.0 mph NW4.8 kmh NW 7.0 mph11.3 kmh 29.82 in1009.8 mb 0.00 in0.0 mm 0.00 in/hr0.0 mm/hr 0.00 in0.0 mm
06:06 PM 29.1°F-1.6°C 25.9°F-3.4°C 87% 3.0 mph NW4.8 kmh NW 13.0 mph20.9 kmh 29.82 in1009.8 mb 0.00 in0.0 mm 0.00 in/hr0.0 mm/hr 0.00 in0.0 mm
05:59 PM 29.1°F-1.6°C 25.9°F-3.4°C 87% 4.0 mph NW6.4 kmh NW 15.0 mph24.1 kmh 29.81 in1009.5 mb 0.00 in0.0 mm 0.00 in/hr0.0 mm/hr 0.00 in0.0 mm
05:52 PM 29.3°F-1.5°C 25.9°F-3.4°C 87% 3.0 mph NW4.8 kmh NW 9.0 mph14.5 kmh 29.81 in1009.5 mb 0.00 in0.0 mm 0.00 in/hr0.0 mm/hr 0.00 in0.0 mm
05:45 PM 29.3°F-1.5°C 25.9°F-3.4°C 87% 3.0 mph NW4.8 kmh NW 12.0 mph19.3 kmh 29.80 in1009.1 mb 0.00 in0.0 mm 0.00 in/hr0.0 mm/hr 0.00 in0.0 mm
05:38 PM 29.5°F-1.4°C 26.1°F-3.3°C 87% 3.0 mph NW4.8 kmh NW 8.0 mph12.9 kmh 29.80 in1009.1 mb 0.00 in0.0 mm 0.00 in/hr0.0 mm/hr 0.00 in0.0 mm
05:31 PM 29.7°F-1.3°C 26.4°F-3.1°C 88% 3.0 mph NW4.8 kmh NW 13.0 mph20.9 kmh 29.80 in1009.1 mb 0.00 in0.0 mm 0.00 in/hr0.0 mm/hr 0.00 in0.0 mm
05:24 PM 29.7°F-1.3°C 26.6°F-3.0°C 88% 3.0 mph NW4.8 kmh NW 13.0 mph20.9 kmh 29.80 in1009.1 mb 0.00 in0.0 mm 0.00 in/hr0.0 mm/hr 0.00 in0.0 mm
05:17 PM 29.8°F-1.2°C 26.8°F-2.9°C 88% 3.0 mph NW4.8 kmh NW 11.0 mph17.7 kmh 29.79 in1008.8 mb 0.00 in0.0 mm 0.00 in/hr0.0 mm/hr 0.00 in0.0 mm
05:10 PM 30.0°F-1.1°C 27.0°F-2.8°C 88% 3.0 mph NW4.8 kmh NW 13.0 mph20.9 kmh 29.78 in1008.5 mb 0.00 in0.0 mm 0.00 in/hr0.0 mm/hr 0.00 in0.0 mm
05:03 PM 30.4°F-0.9°C 27.3°F-2.6°C 88% 3.0 mph NW4.8 kmh NW 9.0 mph14.5 kmh 29.78 in1008.5 mb 0.00 in0.0 mm 0.00 in/hr0.0 mm/hr 0.00 in0.0 mm
04:56 PM 30.7°F-0.7°C 27.7°F-2.4°C 88% 3.0 mph NW4.8 kmh NW 9.0 mph14.5 kmh 29.78 in1008.5 mb 0.00 in0.0 mm 0.00 in/hr0.0 mm/hr 0.00 in0.0 mm
04:49 PM 31.3°F-0.4°C 28.2°F-2.1°C 88% 3.0 mph NW4.8 kmh NW 13.0 mph20.9 kmh 29.77 in1008.1 mb 0.00 in0.0 mm 0.00 in/hr0.0 mm/hr 0.00 in0.0 mm
04:42 PM 31.6°F-0.2°C 28.4°F-2.0°C 88% 1.0 mph NW1.6 kmh NW 5.0 mph8.0 kmh 29.76 in1007.8 mb 0.00 in0.0 mm 0.00 in/hr0.0 mm/hr 0.00 in0.0 mm
04:35 PM 31.8°F-0.1°C 28.6°F-1.9°C 88% 3.0 mph NW4.8 kmh NW 11.0 mph17.7 kmh 29.76 in1007.8 mb 0.00 in0.0 mm 0.00 in/hr0.0 mm/hr 0.00 in0.0 mm
04:28 PM 32.0°F0.0°C 28.8°F-1.8°C 88% 3.0 mph NW4.8 kmh NW 12.0 mph19.3 kmh 29.75 in1007.5 mb 0.00 in0.0 mm 0.00 in/hr0.0 mm/hr 0.00 in0.0 mm
04:21 PM 32.4°F0.2°C 29.1°F-1.6°C 88% 1.0 mph NW1.6 kmh NW 7.0 mph11.3 kmh 29.75 in1007.5 mb 0.00 in0.0 mm 0.00 in/hr0.0 mm/hr 0.00 in0.0 mm
04:14 PM 32.5°F0.3°C 29.3°F-1.5°C 88% 3.0 mph NW4.8 kmh NW 8.0 mph12.9 kmh 29.74 in1007.1 mb 0.00 in0.0 mm 0.00 in/hr0.0 mm/hr 0.00 in0.0 mm
04:07 PM 32.7°F0.4°C 29.5°F-1.4°C 88% 3.0 mph WNW4.8 kmh WNW 8.0 mph12.9 kmh 29.74 in1007.1 mb 0.00 in0.0 mm 0.00 in/hr0.0 mm/hr 0.00 in0.0 mm
04:00 PM 32.7°F0.4°C 29.3°F-1.5°C 87% 3.0 mph W4.8 kmh W 12.0 mph19.3 kmh 29.74 in1007.1 mb 0.00 in0.0 mm 0.00 in/hr0.0 mm/hr 0.00 in0.0 mm
03:53 PM 32.9°F0.5°C 29.5°F-1.4°C 87% 3.0 mph W4.8 kmh W 12.0 mph19.3 kmh 29.73 in1006.8 mb 0.00 in0.0 mm 0.00 in/hr0.0 mm/hr 0.00 in0.0 mm
03:46 PM 32.9°F0.5°C 29.5°F-1.4°C 87% 1.0 mph W1.6 kmh W 5.0 mph8.0 kmh 29.73 in1006.8 mb 0.00 in0.0 mm 0.00 in/hr0.0 mm/hr 0.00 in0.0 mm
03:39 PM 32.7°F0.4°C 29.3°F-1.5°C 87% 1.0 mph WSW1.6 kmh WSW 4.0 mph6.4 kmh 29.73 in1006.8 mb 0.00 in0.0 mm 0.00 in/hr0.0 mm/hr 0.00 in0.0 mm
03:32 PM 32.7°F0.4°C 29.3°F-1.5°C 87% Calm Calm 4.0 mph6.4 kmh 29.73 in1006.8 mb 0.00 in0.0 mm 0.00 in/hr0.0 mm/hr 0.00 in0.0 mm
03:25 PM 32.7°F0.4°C 29.7°F-1.3°C 88% Calm Calm 4.0 mph6.4 kmh 29.72 in1006.4 mb 0.00 in0.0 mm 0.00 in/hr0.0 mm/hr 0.00 in0.0 mm
03:18 PM 32.7°F0.4°C 29.7°F-1.3°C 88% Calm Calm 3.0 mph4.8 kmh 29.72 in1006.4 mb 0.00 in0.0 mm 0.00 in/hr0.0 mm/hr 0.00 in0.0 mm
03:11 PM 32.7°F0.4°C 29.7°F-1.3°C 88% Calm Calm 3.0 mph4.8 kmh 29.72 in1006.4 mb 0.00 in0.0 mm 0.00 in/hr0.0 mm/hr 0.00 in0.0 mm
03:04 PM 32.7°F0.4°C 29.5°F-1.4°C 88% Calm Calm 1.0 mph1.6 kmh 29.72 in1006.4 mb 0.00 in0.0 mm 0.00 in/hr0.0 mm/hr 0.00 in0.0 mm
02:57 PM 32.7°F0.4°C 29.5°F-1.4°C 88% Calm Calm 1.0 mph1.6 kmh 29.72 in1006.4 mb 0.00 in0.0 mm 0.00 in/hr0.0 mm/hr 0.00 in0.0 mm
02:50 PM 32.7°F0.4°C 29.5°F-1.4°C 88% Calm Calm 1.0 mph1.6 kmh 29.72 in1006.4 mb 0.00 in0.0 mm 0.00 in/hr0.0 mm/hr 0.00 in0.0 mm
02:43 PM 32.5°F0.3°C 29.5°F-1.4°C 88% Calm Calm -- 29.72 in1006.4 mb 0.00 in0.0 mm 0.00 in/hr0.0 mm/hr 0.00 in0.0 mm
02:36 PM 32.5°F0.3°C 29.3°F-1.5°C 88% Calm Calm 1.0 mph1.6 kmh 29.72 in1006.4 mb 0.00 in0.0 mm 0.00 in/hr0.0 mm/hr 0.00 in0.0 mm
02:29 PM 32.5°F0.3°C 29.1°F-1.6°C 87% Calm Calm 3.0 mph4.8 kmh 29.72 in1006.4 mb 0.00 in0.0 mm 0.00 in/hr0.0 mm/hr 0.00 in0.0 mm
02:22 PM 32.5°F0.3°C 29.1°F-1.6°C 87% Calm Calm 3.0 mph4.8 kmh 29.73 in1006.8 mb 0.00 in0.0 mm 0.00 in/hr0.0 mm/hr 0.00 in0.0 mm
02:15 PM 32.5°F0.3°C 29.1°F-1.6°C 87% Calm Calm 4.0 mph6.4 kmh 29.73 in1006.8 mb 0.00 in0.0 mm 0.00 in/hr0.0 mm/hr 0.00 in0.0 mm
02:08 PM 32.5°F0.3°C 28.9°F-1.7°C 86% Calm Calm 4.0 mph6.4 kmh 29.73 in1006.8 mb 0.00 in0.0 mm 0.00 in/hr0.0 mm/hr 0.00 in0.0 mm
02:01 PM 32.5°F0.3°C 28.6°F-1.9°C 85% Calm Calm 3.0 mph4.8 kmh 29.73 in1006.8 mb 0.00 in0.0 mm 0.00 in/hr0.0 mm/hr 0.00 in0.0 mm
01:54 PM 32.5°F0.3°C 28.6°F-1.9°C 85% Calm Calm 5.0 mph8.0 kmh 29.73 in1006.8 mb 0.00 in0.0 mm 0.00 in/hr0.0 mm/hr 0.00 in0.0 mm
01:47 PM 32.5°F0.3°C 28.2°F-2.1°C 84% 1.0 mph S1.6 kmh S 5.0 mph8.0 kmh 29.73 in1006.8 mb 0.00 in0.0 mm 0.00 in/hr0.0 mm/hr 0.00 in0.0 mm
01:40 PM 32.5°F0.3°C 28.2°F-2.1°C 84% Calm Calm 4.0 mph6.4 kmh 29.74 in1007.1 mb 0.00 in0.0 mm 0.00 in/hr0.0 mm/hr 0.00 in0.0 mm
01:33 PM 32.5°F0.3°C 27.9°F-2.3°C 83% 1.0 mph SSW1.6 kmh SSW 5.0 mph8.0 kmh 29.74 in1007.1 mb 0.00 in0.0 mm 0.00 in/hr0.0 mm/hr 0.00 in0.0 mm
01:26 PM 32.5°F0.3°C 27.9°F-2.3°C 83% 1.0 mph S1.6 kmh S 7.0 mph11.3 kmh 29.75 in1007.5 mb 0.00 in0.0 mm 0.00 in/hr0.0 mm/hr 0.00 in0.0 mm
01:19 PM 32.4°F0.2°C 27.5°F-2.5°C 82% 1.0 mph S1.6 kmh S 7.0 mph11.3 kmh 29.75 in1007.5 mb 0.00 in0.0 mm 0.00 in/hr0.0 mm/hr 0.00 in0.0 mm
01:12 PM 32.4°F0.2°C 27.1°F-2.7°C 81% 1.0 mph S1.6 kmh S 8.0 mph12.9 kmh 29.75 in1007.5 mb 0.00 in0.0 mm 0.00 in/hr0.0 mm/hr 0.00 in0.0 mm
01:05 PM 32.2°F0.1°C 26.6°F-3.0°C 80% 1.0 mph S1.6 kmh S 8.0 mph12.9 kmh 29.75 in1007.5 mb 0.00 in0.0 mm 0.00 in/hr0.0 mm/hr 0.00 in0.0 mm
12:58 PM 32.0°F0.0°C 26.6°F-3.0°C 80% 1.0 mph S1.6 kmh S 8.0 mph12.9 kmh 29.76 in1007.8 mb 0.00 in0.0 mm 0.00 in/hr0.0 mm/hr 0.00 in0.0 mm
12:51 PM 31.8°F-0.1°C 25.9°F-3.4°C 78% 1.0 mph S1.6 kmh S 5.0 mph8.0 kmh 29.76 in1007.8 mb 0.00 in0.0 mm 0.00 in/hr0.0 mm/hr 0.00 in0.0 mm
12:44 PM 29.5°F-1.4°C 21.9°F-5.6°C 73% 1.0 mph SSW1.6 kmh SSW 15.0 mph24.1 kmh 29.81 in1009.5 mb 0.00 in0.0 mm 0.00 in/hr0.0 mm/hr 0.00 in0.0 mm
12:40 PM 31.8°F-0.1°C 25.4°F-3.7°C 77% 1.3 mph SSW2.1 kmh SSW 5.3 mph8.5 kmh 29.76 in1007.8 mb 0.00 in0.0 mm 0.00 in/hr0.0 mm/hr 0.00 in0.0 mm
12:35 PM 31.7°F-0.2°C 25.0°F-3.9°C 76% 1.3 mph S2.1 kmh S 6.6 mph10.6 kmh 29.77 in1008.1 mb 0.00 in0.0 mm 0.00 in/hr0.0 mm/hr 0.00 in0.0 mm
12:30 PM 31.7°F-0.2°C 24.7°F-4.1°C 75% 1.0 mph SSW1.6 kmh SSW 7.0 mph11.3 kmh 29.77 in1008.1 mb 0.00 in0.0 mm 0.00 in/hr0.0 mm/hr 0.00 in0.0 mm
12:25 PM 31.5°F-0.3°C 23.8°F-4.6°C 73% Calm Calm 5.3 mph8.5 kmh 29.77 in1008.1 mb 0.00 in0.0 mm 0.00 in/hr0.0 mm/hr 0.00 in0.0 mm
12:20 PM 31.4°F-0.3°C 23.7°F-4.6°C 73% 1.3 mph S2.1 kmh S 5.3 mph8.5 kmh 29.77 in1008.1 mb 0.00 in0.0 mm 0.00 in/hr0.0 mm/hr 0.00 in0.0 mm
12:15 PM 31.2°F-0.4°C 23.5°F-4.7°C 73% 1.3 mph S2.1 kmh S 5.3 mph8.5 kmh 29.77 in1008.1 mb 0.00 in0.0 mm 0.00 in/hr0.0 mm/hr 0.00 in0.0 mm
12:10 PM 31.1°F-0.5°C 23.4°F-4.8°C 73% 1.3 mph S2.1 kmh S 5.3 mph8.5 kmh 29.78 in1008.5 mb 0.00 in0.0 mm 0.00 in/hr0.0 mm/hr 0.00 in0.0 mm
12:05 PM 30.9°F-0.6°C 23.2°F-4.9°C 73% 1.3 mph SSE2.1 kmh SSE 5.3 mph8.5 kmh 29.78 in1008.5 mb 0.00 in0.0 mm 0.00 in/hr0.0 mm/hr 0.00 in0.0 mm
12:00 PM 30.7°F-0.7°C 23.0°F-5.0°C 73% 1.3 mph S2.1 kmh S 5.3 mph8.5 kmh 29.78 in1008.5 mb 0.00 in0.0 mm 0.00 in/hr0.0 mm/hr 0.00 in0.0 mm
11:55 AM 30.4°F-0.9°C 22.8°F-5.1°C 73% 1.3 mph S2.1 kmh S 5.3 mph8.5 kmh 29.79 in1008.8 mb 0.00 in0.0 mm 0.00 in/hr0.0 mm/hr 0.00 in0.0 mm
11:50 AM 30.3°F-0.9°C 22.7°F-5.2°C 73% 1.3 mph S2.1 kmh S 5.3 mph8.5 kmh 29.79 in1008.8 mb 0.00 in0.0 mm 0.00 in/hr0.0 mm/hr 0.00 in0.0 mm
11:45 AM 30.1°F-1.1°C 22.1°F-5.5°C 72% 2.7 mph S4.3 kmh S 8.0 mph12.9 kmh 29.79 in1008.8 mb 0.00 in0.0 mm 0.00 in/hr0.0 mm/hr 0.00 in0.0 mm
11:40 AM 29.9°F-1.2°C 22.3°F-5.4°C 73% 2.7 mph S4.3 kmh S 12.0 mph19.3 kmh 29.80 in1009.1 mb 0.00 in0.0 mm 0.00 in/hr0.0 mm/hr 0.00 in0.0 mm
11:35 AM 29.8°F-1.2°C 22.2°F-5.4°C 73% 2.7 mph S4.3 kmh S 12.0 mph19.3 kmh 29.80 in1009.1 mb 0.00 in0.0 mm 0.00 in/hr0.0 mm/hr 0.00 in0.0 mm
11:30 AM 29.7°F-1.3°C 22.1°F-5.5°C 73% 1.3 mph S2.1 kmh S 5.3 mph8.5 kmh 29.80 in1009.1 mb 0.00 in0.0 mm 0.00 in/hr0.0 mm/hr 0.00 in0.0 mm
11:25 AM 29.6°F-1.3°C 22.0°F-5.6°C 73% 1.3 mph SSE2.1 kmh SSE 5.3 mph8.5 kmh 29.81 in1009.5 mb 0.00 in0.0 mm 0.00 in/hr0.0 mm/hr 0.00 in0.0 mm
11:20 AM 29.5°F-1.4°C 21.9°F-5.6°C 73% 2.7 mph SE4.3 kmh SE 13.3 mph21.4 kmh 29.81 in1009.5 mb 0.00 in0.0 mm 0.00 in/hr0.0 mm/hr 0.00 in0.0 mm
11:17 AM 5.1°F-14.9°C 1.7°F-16.8°C 85% Calm Calm -- 30.24 in1024.0 mb 0.00 in0.0 mm 0.00 in/hr0.0 mm/hr 0.00 in0.0 mm
11:16 AM 12.3°F-10.9°C 5.1°F-14.9°C 72% 1.3 mph ENE2.1 kmh ENE 4.0 mph6.4 kmh 30.04 in1017.3 mb 0.00 in0.0 mm 0.00 in/hr0.0 mm/hr 0.00 in0.0 mm
11:11 AM 29.1°F-1.6°C 21.6°F-5.8°C 73% 3.0 mph S4.8 kmh S 15.0 mph24.1 kmh 29.82 in1009.8 mb 0.00 in0.0 mm 0.00 in/hr0.0 mm/hr 0.00 in0.0 mm
11:10 AM 29.2°F-1.6°C 21.6°F-5.8°C 73% 2.7 mph S4.3 kmh S 13.3 mph21.4 kmh 29.82 in1009.8 mb 0.00 in0.0 mm 0.00 in/hr0.0 mm/hr 0.00 in0.0 mm
11:04 AM 29.1°F-1.6°C 21.9°F-5.6°C 74% 4.0 mph S6.4 kmh S 12.0 mph19.3 kmh 29.83 in1010.2 mb 0.00 in0.0 mm 0.00 in/hr0.0 mm/hr 0.00 in0.0 mm
10:57 AM 28.9°F-1.7°C 21.7°F-5.7°C 74% 3.0 mph S4.8 kmh S 9.0 mph14.5 kmh 29.84 in1010.5 mb 0.00 in0.0 mm 0.00 in/hr0.0 mm/hr 0.00 in0.0 mm
10:50 AM 28.9°F-1.7°C 21.7°F-5.7°C 74% 4.0 mph S6.4 kmh S 9.0 mph14.5 kmh 29.84 in1010.5 mb 0.00 in0.0 mm 0.00 in/hr0.0 mm/hr 0.00 in0.0 mm
10:43 AM 29.1°F-1.6°C 21.9°F-5.6°C 74% 4.0 mph S6.4 kmh S 12.0 mph19.3 kmh 29.84 in1010.5 mb 0.00 in0.0 mm 0.00 in/hr0.0 mm/hr 0.00 in0.0 mm
10:36 AM 29.5°F-1.4°C 21.7°F-5.7°C 73% 5.0 mph S8.0 kmh S 15.0 mph24.1 kmh 29.85 in1010.8 mb 0.00 in0.0 mm 0.00 in/hr0.0 mm/hr 0.00 in0.0 mm
10:29 AM 29.8°F-1.2°C 20.8°F-6.2°C 69% 4.0 mph S6.4 kmh S 16.0 mph25.7 kmh 29.85 in1010.8 mb 0.00 in0.0 mm 0.00 in/hr0.0 mm/hr 0.00 in0.0 mm
10:22 AM 29.8°F-1.2°C 20.3°F-6.5°C 67% 4.0 mph S6.4 kmh S 15.0 mph24.1 kmh 29.86 in1011.2 mb 0.00 in0.0 mm 0.00 in/hr0.0 mm/hr 0.00 in0.0 mm
10:15 AM 30.0°F-1.1°C 20.1°F-6.6°C 66% 4.0 mph S6.4 kmh S 15.0 mph24.1 kmh 29.86 in1011.2 mb 0.00 in0.0 mm 0.00 in/hr0.0 mm/hr 0.00 in0.0 mm
10:08 AM 30.0°F-1.1°C 19.4°F-7.0°C 64% 4.0 mph S6.4 kmh S 15.0 mph24.1 kmh 29.86 in1011.2 mb 0.00 in0.0 mm 0.00 in/hr0.0 mm/hr 0.00 in0.0 mm
10:01 AM 30.2°F-1.0°C 18.7°F-7.4°C 62% 5.0 mph S8.0 kmh S 12.0 mph19.3 kmh 29.86 in1011.2 mb 0.00 in0.0 mm 0.00 in/hr0.0 mm/hr 0.00 in0.0 mm
09:54 AM 30.2°F-1.0°C 18.3°F-7.6°C 61% 4.0 mph S6.4 kmh S 16.0 mph25.7 kmh 29.86 in1011.2 mb 0.00 in0.0 mm 0.00 in/hr0.0 mm/hr 0.00 in0.0 mm
09:47 AM 30.0°F-1.1°C 18.3°F-7.6°C 61% 4.0 mph S6.4 kmh S 12.0 mph19.3 kmh 29.86 in1011.2 mb 0.00 in0.0 mm 0.00 in/hr0.0 mm/hr 0.00 in0.0 mm
09:40 AM 30.0°F-1.1°C 18.1°F-7.7°C 61% 4.0 mph S6.4 kmh S 19.0 mph30.6 kmh 29.86 in1011.2 mb 0.00 in0.0 mm 0.00 in/hr0.0 mm/hr 0.00 in0.0 mm
09:33 AM 29.7°F-1.3°C 18.0°F-7.8°C 61% 3.0 mph SSE4.8 kmh SSE 13.0 mph20.9 kmh 29.87 in1011.5 mb 0.00 in0.0 mm 0.00 in/hr0.0 mm/hr 0.00 in0.0 mm
09:26 AM 29.5°F-1.4°C 18.1°F-7.7°C 62% 3.0 mph S4.8 kmh S 9.0 mph14.5 kmh 29.87 in1011.5 mb 0.00 in0.0 mm 0.00 in/hr0.0 mm/hr 0.00 in0.0 mm
09:19 AM 29.5°F-1.4°C 18.0°F-7.8°C 62% 4.0 mph S6.4 kmh S 15.0 mph24.1 kmh 29.88 in1011.9 mb 0.00 in0.0 mm 0.00 in/hr0.0 mm/hr 0.00 in0.0 mm
09:12 AM 29.1°F-1.6°C 17.8°F-7.9°C 62% 3.0 mph S4.8 kmh S 9.0 mph14.5 kmh 29.88 in1011.9 mb 0.00 in0.0 mm 0.00 in/hr0.0 mm/hr 0.00 in0.0 mm
09:05 AM 29.1°F-1.6°C 17.8°F-7.9°C 62% 3.0 mph S4.8 kmh S 13.0 mph20.9 kmh 29.89 in1012.2 mb 0.00 in0.0 mm 0.00 in/hr0.0 mm/hr 0.00 in0.0 mm
08:58 AM 28.9°F-1.7°C 17.6°F-8.0°C 62% 4.0 mph S6.4 kmh S 13.0 mph20.9 kmh 29.89 in1012.2 mb 0.00 in0.0 mm 0.00 in/hr0.0 mm/hr 0.00 in0.0 mm
08:51 AM 28.9°F-1.7°C 17.2°F-8.2°C 61% 4.0 mph S6.4 kmh S 13.0 mph20.9 kmh 29.90 in1012.5 mb 0.00 in0.0 mm 0.00 in/hr0.0 mm/hr 0.00 in0.0 mm
08:44 AM 28.8°F-1.8°C 17.1°F-8.3°C 61% 4.0 mph S6.4 kmh S 13.0 mph20.9 kmh 29.90 in1012.5 mb 0.00 in0.0 mm 0.00 in/hr0.0 mm/hr 0.00 in0.0 mm
08:37 AM 28.8°F-1.8°C 16.9°F-8.4°C 61% 4.0 mph S6.4 kmh S 17.0 mph27.4 kmh 29.90 in1012.5 mb 0.00 in0.0 mm 0.00 in/hr0.0 mm/hr 0.00 in0.0 mm
08:30 AM 28.6°F-1.9°C 17.1°F-8.3°C 62% 4.0 mph SSE6.4 kmh SSE 12.0 mph19.3 kmh 29.91 in1012.9 mb 0.00 in0.0 mm 0.00 in/hr0.0 mm/hr 0.00 in0.0 mm
08:23 AM 28.2°F-2.1°C 16.5°F-8.6°C 61% 4.0 mph SSE6.4 kmh SSE 12.0 mph19.3 kmh 29.91 in1012.9 mb 0.00 in0.0 mm 0.00 in/hr0.0 mm/hr 0.00 in0.0 mm
08:16 AM 28.0°F-2.2°C 16.7°F-8.5°C 62% 3.0 mph SSE4.8 kmh SSE 13.0 mph20.9 kmh 29.91 in1012.9 mb 0.00 in0.0 mm 0.00 in/hr0.0 mm/hr 0.00 in0.0 mm
08:09 AM 27.9°F-2.3°C 17.2°F-8.2°C 64% 4.0 mph SSE6.4 kmh SSE 13.0 mph20.9 kmh 29.92 in1013.2 mb 0.00 in0.0 mm 0.00 in/hr0.0 mm/hr 0.00 in0.0 mm
08:02 AM 27.5°F-2.5°C 17.6°F-8.0°C 66% 4.0 mph SE6.4 kmh SE 11.0 mph17.7 kmh 29.91 in1012.9 mb 0.00 in0.0 mm 0.00 in/hr0.0 mm/hr 0.00 in0.0 mm
07:55 AM 27.1°F-2.7°C 17.6°F-8.0°C 67% 3.0 mph SE4.8 kmh SE 9.0 mph14.5 kmh 29.92 in1013.2 mb 0.00 in0.0 mm 0.00 in/hr0.0 mm/hr 0.00 in0.0 mm
07:48 AM 27.1°F-2.7°C 18.0°F-7.8°C 68% 3.0 mph SE4.8 kmh SE 15.0 mph24.1 kmh 29.92 in1013.2 mb 0.00 in0.0 mm 0.00 in/hr0.0 mm/hr 0.00 in0.0 mm
07:41 AM 27.1°F-2.7°C 18.0°F-7.8°C 68% 4.0 mph SE6.4 kmh SE 15.0 mph24.1 kmh 29.93 in1013.5 mb 0.00 in0.0 mm 0.00 in/hr0.0 mm/hr 0.00 in0.0 mm
07:34 AM 27.0°F-2.8°C 17.8°F-7.9°C 68% 3.0 mph SE4.8 kmh SE 15.0 mph24.1 kmh 29.95 in1014.2 mb 0.00 in0.0 mm 0.00 in/hr0.0 mm/hr 0.00 in0.0 mm
07:27 AM 27.0°F-2.8°C 17.8°F-7.9°C 68% 4.0 mph SSE6.4 kmh SSE 15.0 mph24.1 kmh 29.96 in1014.6 mb 0.00 in0.0 mm 0.00 in/hr0.0 mm/hr 0.00 in0.0 mm
07:20 AM 27.0°F-2.8°C 17.8°F-7.9°C 68% 4.0 mph SE6.4 kmh SE 15.0 mph24.1 kmh 29.96 in1014.6 mb 0.00 in0.0 mm 0.00 in/hr0.0 mm/hr 0.00 in0.0 mm
07:13 AM 26.8°F-2.9°C 17.6°F-8.0°C 68% 3.0 mph SSE4.8 kmh SSE 15.0 mph24.1 kmh 29.97 in1014.9 mb 0.00 in0.0 mm 0.00 in/hr0.0 mm/hr 0.00 in0.0 mm
07:06 AM 26.8°F-2.9°C 18.1°F-7.7°C 70% 3.0 mph SE4.8 kmh SE 13.0 mph20.9 kmh 29.98 in1015.2 mb 0.00 in0.0 mm 0.00 in/hr0.0 mm/hr 0.00 in0.0 mm
06:59 AM 26.4°F-3.1°C 18.0°F-7.8°C 70% 3.0 mph SE4.8 kmh SE 12.0 mph19.3 kmh 29.99 in1015.6 mb 0.00 in0.0 mm 0.00 in/hr0.0 mm/hr 0.00 in0.0 mm
06:52 AM 26.4°F-3.1°C 18.0°F-7.8°C 70% 3.0 mph SE4.8 kmh SE 12.0 mph19.3 kmh 29.99 in1015.6 mb 0.00 in0.0 mm 0.00 in/hr0.0 mm/hr 0.00 in0.0 mm
06:45 AM 26.4°F-3.1°C 18.3°F-7.6°C 71% 3.0 mph SE4.8 kmh SE 9.0 mph14.5 kmh 30.00 in1015.9 mb 0.00 in0.0 mm 0.00 in/hr0.0 mm/hr 0.00 in0.0 mm
06:38 AM 26.2°F-3.2°C 18.1°F-7.7°C 71% 3.0 mph SE4.8 kmh SE 9.0 mph14.5 kmh 30.01 in1016.3 mb 0.00 in0.0 mm 0.00 in/hr0.0 mm/hr 0.00 in0.0 mm
06:31 AM 26.1°F-3.3°C 18.3°F-7.6°C 72% 1.0 mph SE1.6 kmh SE 9.0 mph14.5 kmh 30.01 in1016.3 mb 0.00 in0.0 mm 0.00 in/hr0.0 mm/hr 0.00 in0.0 mm
06:24 AM 26.1°F-3.3°C 18.3°F-7.6°C 72% 1.0 mph SSE1.6 kmh SSE 9.0 mph14.5 kmh 30.01 in1016.3 mb 0.00 in0.0 mm 0.00 in/hr0.0 mm/hr 0.00 in0.0 mm
06:17 AM 26.1°F-3.3°C 18.3°F-7.6°C 72% 3.0 mph SSE4.8 kmh SSE 8.0 mph12.9 kmh 30.02 in1016.6 mb 0.00 in0.0 mm 0.00 in/hr0.0 mm/hr 0.00 in0.0 mm
06:10 AM 26.1°F-3.3°C 18.1°F-7.7°C 72% 3.0 mph SE4.8 kmh SE 12.0 mph19.3 kmh 30.02 in1016.6 mb 0.00 in0.0 mm 0.00 in/hr0.0 mm/hr 0.00 in0.0 mm
06:03 AM 25.9°F-3.4°C 18.1°F-7.7°C 72% 3.0 mph SE4.8 kmh SE 9.0 mph14.5 kmh 30.03 in1016.9 mb 0.00 in0.0 mm 0.00 in/hr0.0 mm/hr 0.00 in0.0 mm
05:56 AM 25.9°F-3.4°C 18.5°F-7.5°C 73% 1.0 mph SE1.6 kmh SE 9.0 mph14.5 kmh 30.03 in1016.9 mb 0.00 in0.0 mm 0.00 in/hr0.0 mm/hr 0.00 in0.0 mm
05:49 AM 25.9°F-3.4°C 18.5°F-7.5°C 73% 3.0 mph SE4.8 kmh SE 13.0 mph20.9 kmh 30.04 in1017.3 mb 0.00 in0.0 mm 0.00 in/hr0.0 mm/hr 0.00 in0.0 mm
05:42 AM 25.9°F-3.4°C 18.0°F-7.8°C 72% 3.0 mph SSE4.8 kmh SSE 13.0 mph20.9 kmh 30.05 in1017.6 mb 0.00 in0.0 mm 0.00 in/hr0.0 mm/hr 0.00 in0.0 mm
05:35 AM 25.7°F-3.5°C 18.3°F-7.6°C 73% 3.0 mph SSE4.8 kmh SSE 12.0 mph19.3 kmh 30.06 in1017.9 mb 0.00 in0.0 mm 0.00 in/hr0.0 mm/hr 0.00 in0.0 mm
05:28 AM 25.5°F-3.6°C 18.5°F-7.5°C 74% 1.0 mph SSE1.6 kmh SSE 7.0 mph11.3 kmh 30.06 in1017.9 mb 0.00 in0.0 mm 0.00 in/hr0.0 mm/hr 0.00 in0.0 mm
05:21 AM 25.5°F-3.6°C 18.3°F-7.6°C 74% 1.0 mph SE1.6 kmh SE 12.0 mph19.3 kmh 30.07 in1018.3 mb 0.00 in0.0 mm 0.00 in/hr0.0 mm/hr 0.00 in0.0 mm
05:14 AM 25.3°F-3.7°C 18.3°F-7.6°C 74% 3.0 mph SE4.8 kmh SE 12.0 mph19.3 kmh 30.07 in1018.3 mb 0.00 in0.0 mm 0.00 in/hr0.0 mm/hr 0.00 in0.0 mm
05:07 AM 25.3°F-3.7°C 18.1°F-7.7°C 74% 1.0 mph SE1.6 kmh SE 9.0 mph14.5 kmh 30.07 in1018.3 mb 0.00 in0.0 mm 0.00 in/hr0.0 mm/hr 0.00 in0.0 mm
05:00 AM 25.3°F-3.7°C 18.1°F-7.7°C 74% 1.0 mph SE1.6 kmh SE 9.0 mph14.5 kmh 30.07 in1018.3 mb 0.00 in0.0 mm 0.00 in/hr0.0 mm/hr 0.00 in0.0 mm
04:53 AM 25.2°F-3.8°C 18.1°F-7.7°C 74% 3.0 mph SE4.8 kmh SE 12.0 mph19.3 kmh 30.07 in1018.3 mb 0.00 in0.0 mm 0.00 in/hr0.0 mm/hr 0.00 in0.0 mm
04:46 AM 25.2°F-3.8°C 17.8°F-7.9°C 73% 3.0 mph SE4.8 kmh SE 12.0 mph19.3 kmh 30.07 in1018.3 mb 0.00 in0.0 mm 0.00 in/hr0.0 mm/hr 0.00 in0.0 mm
04:39 AM 25.2°F-3.8°C 18.0°F-7.8°C 74% 3.0 mph ESE4.8 kmh ESE 9.0 mph14.5 kmh 30.08 in1018.6 mb 0.00 in0.0 mm 0.00 in/hr0.0 mm/hr 0.00 in0.0 mm
03:43 AM 24.8°F-4.0°C 17.6°F-8.0°C 74% 3.0 mph SSE4.8 kmh SSE 13.0 mph20.9 kmh 30.15 in1021.0 mb 0.00 in0.0 mm 0.00 in/hr0.0 mm/hr 0.00 in0.0 mm
03:36 AM 24.6°F-4.1°C 18.0°F-7.8°C 75% 3.0 mph S4.8 kmh S 5.0 mph8.0 kmh 30.16 in1021.3 mb 0.00 in0.0 mm 0.00 in/hr0.0 mm/hr 0.00 in0.0 mm
03:29 AM 24.6°F-4.1°C 17.6°F-8.0°C 74% 3.0 mph S4.8 kmh S 9.0 mph14.5 kmh 30.16 in1021.3 mb 0.00 in0.0 mm 0.00 in/hr0.0 mm/hr 0.00 in0.0 mm
03:22 AM 24.6°F-4.1°C 17.6°F-8.0°C 74% 3.0 mph S4.8 kmh S 9.0 mph14.5 kmh 30.16 in1021.3 mb 0.00 in0.0 mm 0.00 in/hr0.0 mm/hr 0.00 in0.0 mm
03:15 AM 24.6°F-4.1°C 17.2°F-8.2°C 73% 1.0 mph SSE1.6 kmh SSE 7.0 mph11.3 kmh 30.16 in1021.3 mb 0.00 in0.0 mm 0.00 in/hr0.0 mm/hr 0.00 in0.0 mm
03:08 AM 24.6°F-4.1°C 17.2°F-8.2°C 73% 1.0 mph SSE1.6 kmh SSE 8.0 mph12.9 kmh 30.17 in1021.7 mb 0.00 in0.0 mm 0.00 in/hr0.0 mm/hr 0.00 in0.0 mm
03:01 AM 24.8°F-4.0°C 17.4°F-8.1°C 73% 1.0 mph SSE1.6 kmh SSE 8.0 mph12.9 kmh 30.17 in1021.7 mb 0.00 in0.0 mm 0.00 in/hr0.0 mm/hr 0.00 in0.0 mm
02:54 AM 24.8°F-4.0°C 17.4°F-8.1°C 73% 1.0 mph S1.6 kmh S 7.0 mph11.3 kmh 30.18 in1022.0 mb 0.00 in0.0 mm 0.00 in/hr0.0 mm/hr 0.00 in0.0 mm
02:47 AM 25.0°F-3.9°C 17.4°F-8.1°C 73% 1.0 mph SE1.6 kmh SE 5.0 mph8.0 kmh 30.18 in1022.0 mb 0.00 in0.0 mm 0.00 in/hr0.0 mm/hr 0.00 in0.0 mm
02:40 AM 25.0°F-3.9°C 17.6°F-8.0°C 73% 1.0 mph SE1.6 kmh SE 8.0 mph12.9 kmh 30.18 in1022.0 mb 0.00 in0.0 mm 0.00 in/hr0.0 mm/hr 0.00 in0.0 mm
02:33 AM 25.0°F-3.9°C 17.6°F-8.0°C 73% 1.0 mph SSE1.6 kmh SSE 8.0 mph12.9 kmh 30.19 in1022.4 mb 0.00 in0.0 mm 0.00 in/hr0.0 mm/hr 0.00 in0.0 mm
02:26 AM 25.0°F-3.9°C 17.8°F-7.9°C 74% 1.0 mph SSE1.6 kmh SSE 8.0 mph12.9 kmh 30.19 in1022.4 mb 0.00 in0.0 mm 0.00 in/hr0.0 mm/hr 0.00 in0.0 mm
02:19 AM 25.0°F-3.9°C 18.1°F-7.7°C 75% 1.0 mph SSE1.6 kmh SSE 5.0 mph8.0 kmh 30.19 in1022.4 mb 0.00 in0.0 mm 0.00 in/hr0.0 mm/hr 0.00 in0.0 mm
02:12 AM 25.0°F-3.9°C 18.3°F-7.6°C 76% 1.0 mph SSE1.6 kmh SSE 8.0 mph12.9 kmh 30.19 in1022.4 mb 0.00 in0.0 mm 0.00 in/hr0.0 mm/hr 0.00 in0.0 mm
02:05 AM 24.8°F-4.0°C 18.7°F-7.4°C 77% 1.0 mph SSE1.6 kmh SSE 8.0 mph12.9 kmh 30.19 in1022.4 mb 0.00 in0.0 mm 0.00 in/hr0.0 mm/hr 0.00 in0.0 mm
01:58 AM 24.6°F-4.1°C 18.9°F-7.3°C 78% Calm Calm 8.0 mph12.9 kmh 30.20 in1022.7 mb 0.00 in0.0 mm 0.00 in/hr0.0 mm/hr 0.00 in0.0 mm
01:51 AM 24.6°F-4.1°C 18.9°F-7.3°C 78% 1.0 mph S1.6 kmh S 9.0 mph14.5 kmh 30.20 in1022.7 mb 0.00 in0.0 mm 0.00 in/hr0.0 mm/hr 0.00 in0.0 mm
01:44 AM 24.6°F-4.1°C 19.0°F-7.2°C 79% Calm Calm 4.0 mph6.4 kmh 30.20 in1022.7 mb 0.00 in0.0 mm 0.00 in/hr0.0 mm/hr 0.00 in0.0 mm
01:37 AM 24.4°F-4.2°C 18.9°F-7.3°C 79% 1.0 mph S1.6 kmh S 4.0 mph6.4 kmh 30.21 in1023.0 mb 0.00 in0.0 mm 0.00 in/hr0.0 mm/hr 0.00 in0.0 mm
01:30 AM 24.3°F-4.3°C 18.7°F-7.4°C 79% 1.0 mph S1.6 kmh S 8.0 mph12.9 kmh 30.21 in1023.0 mb 0.00 in0.0 mm 0.00 in/hr0.0 mm/hr 0.00 in0.0 mm
01:23 AM 24.3°F-4.3°C 18.9°F-7.3°C 80% Calm Calm 3.0 mph4.8 kmh 30.21 in1023.0 mb 0.00 in0.0 mm 0.00 in/hr0.0 mm/hr 0.00 in0.0 mm
01:16 AM 24.1°F-4.4°C 18.9°F-7.3°C 80% 1.0 mph S1.6 kmh S 7.0 mph11.3 kmh 30.21 in1023.0 mb 0.00 in0.0 mm 0.00 in/hr0.0 mm/hr 0.00 in0.0 mm
01:09 AM 24.1°F-4.4°C 18.7°F-7.4°C 80% 1.0 mph SE1.6 kmh SE 7.0 mph11.3 kmh 30.21 in1023.0 mb 0.00 in0.0 mm 0.00 in/hr0.0 mm/hr 0.00 in0.0 mm
01:02 AM 23.9°F-4.5°C 18.7°F-7.4°C 80% 1.0 mph S1.6 kmh S 8.0 mph12.9 kmh 30.22 in1023.4 mb 0.00 in0.0 mm 0.00 in/hr0.0 mm/hr 0.00 in0.0 mm
12:55 AM 23.7°F-4.6°C 18.5°F-7.5°C 80% 1.0 mph S1.6 kmh S 5.0 mph8.0 kmh 30.22 in1023.4 mb 0.00 in0.0 mm 0.00 in/hr0.0 mm/hr 0.00 in0.0 mm
12:48 AM 23.5°F-4.7°C 18.3°F-7.6°C 80% 1.0 mph S1.6 kmh S 5.0 mph8.0 kmh 30.22 in1023.4 mb 0.00 in0.0 mm 0.00 in/hr0.0 mm/hr 0.00 in0.0 mm
12:41 AM 23.5°F-4.7°C 18.3°F-7.6°C 80% 1.0 mph S1.6 kmh S 7.0 mph11.3 kmh 30.22 in1023.4 mb 0.00 in0.0 mm 0.00 in/hr0.0 mm/hr 0.00 in0.0 mm
12:34 AM 23.4°F-4.8°C 18.1°F-7.7°C 80% 1.0 mph S1.6 kmh S 7.0 mph11.3 kmh 30.22 in1023.4 mb 0.00 in0.0 mm 0.00 in/hr0.0 mm/hr 0.00 in0.0 mm
12:27 AM 23.4°F-4.8°C 18.1°F-7.7°C 80% 1.0 mph S1.6 kmh S 7.0 mph11.3 kmh 30.23 in1023.7 mb 0.00 in0.0 mm 0.00 in/hr0.0 mm/hr 0.00 in0.0 mm
12:20 AM 23.4°F-4.8°C 18.0°F-7.8°C 80% 1.0 mph S1.6 kmh S 7.0 mph11.3 kmh 30.23 in1023.7 mb 0.00 in0.0 mm 0.00 in/hr0.0 mm/hr 0.00 in0.0 mm
12:13 AM 23.4°F-4.8°C 18.0°F-7.8°C 80% 1.0 mph S1.6 kmh S 5.0 mph8.0 kmh 30.23 in1023.7 mb 0.00 in0.0 mm 0.00 in/hr0.0 mm/hr 0.00 in0.0 mm
12:06 AM 23.2°F-4.9°C 18.0°F-7.8°C 80% 1.0 mph S1.6 kmh S 7.0 mph11.3 kmh 30.24 in1024.0 mb 0.00 in0.0 mm 0.00 in/hr0.0 mm/hr 0.00 in0.0 mm